sensor_id;sensor_type;location;lat;lon;timestamp;P1;durP1;ratioP1;P2;durP2;ratioP2
75061;SDS011;63641;46.526;24.612;2023-01-20T00:01:24;5.10;;;3.25;;
75061;SDS011;63641;46.526;24.612;2023-01-20T00:03:52;5.13;;;3.58;;
75061;SDS011;63641;46.526;24.612;2023-01-20T00:06:20;4.07;;;3.40;;
75061;SDS011;63641;46.526;24.612;2023-01-20T00:08:49;7.50;;;3.20;;
75061;SDS011;63641;46.526;24.612;2023-01-20T00:11:17;4.13;;;3.72;;
75061;SDS011;63641;46.526;24.612;2023-01-20T00:13:44;3.30;;;3.00;;
75061;SDS011;63641;46.526;24.612;2023-01-20T00:16:11;4.65;;;2.53;;
75061;SDS011;63641;46.526;24.612;2023-01-20T00:18:38;11.50;;;7.82;;
75061;SDS011;63641;46.526;24.612;2023-01-20T00:21:09;15.13;;;11.50;;
75061;SDS011;63641;46.526;24.612;2023-01-20T00:23:42;11.38;;;7.47;;
75061;SDS011;63641;46.526;24.612;2023-01-20T00:26:10;12.90;;;8.85;;
75061;SDS011;63641;46.526;24.612;2023-01-20T00:28:39;12.98;;;9.90;;
75061;SDS011;63641;46.526;24.612;2023-01-20T00:33:41;10.82;;;7.53;;
75061;SDS011;63641;46.526;24.612;2023-01-20T00:36:08;9.38;;;6.55;;
75061;SDS011;63641;46.526;24.612;2023-01-20T00:38:36;13.98;;;9.20;;
75061;SDS011;63641;46.526;24.612;2023-01-20T00:41:03;11.35;;;8.25;;
75061;SDS011;63641;46.526;24.612;2023-01-20T00:43:30;9.07;;;8.02;;
75061;SDS011;63641;46.526;24.612;2023-01-20T00:45:57;9.68;;;8.35;;
75061;SDS011;63641;46.526;24.612;2023-01-20T00:48:24;9.13;;;6.85;;
75061;SDS011;63641;46.526;24.612;2023-01-20T00:50:51;9.07;;;6.57;;
75061;SDS011;63641;46.526;24.612;2023-01-20T00:53:17;9.18;;;7.03;;
75061;SDS011;63641;46.526;24.612;2023-01-20T00:55:44;7.85;;;7.07;;
75061;SDS011;63641;46.526;24.612;2023-01-20T00:58:11;8.57;;;6.22;;
75061;SDS011;63641;46.526;24.612;2023-01-20T01:00:38;9.95;;;6.82;;
75061;SDS011;63641;46.526;24.612;2023-01-20T01:03:04;8.25;;;6.40;;
75061;SDS011;63641;46.526;24.612;2023-01-20T01:05:31;6.75;;;5.45;;
75061;SDS011;63641;46.526;24.612;2023-01-20T01:07:58;6.43;;;5.55;;
75061;SDS011;63641;46.526;24.612;2023-01-20T01:10:25;6.50;;;5.47;;
75061;SDS011;63641;46.526;24.612;2023-01-20T01:12:53;7.45;;;5.45;;
75061;SDS011;63641;46.526;24.612;2023-01-20T01:15:19;6.88;;;5.32;;
75061;SDS011;63641;46.526;24.612;2023-01-20T01:17:46;6.18;;;4.07;;
75061;SDS011;63641;46.526;24.612;2023-01-20T01:20:13;6.18;;;4.10;;
75061;SDS011;63641;46.526;24.612;2023-01-20T01:22:40;4.85;;;3.38;;
75061;SDS011;63641;46.526;24.612;2023-01-20T01:25:07;5.68;;;4.53;;
75061;SDS011;63641;46.526;24.612;2023-01-20T01:27:34;3.63;;;3.20;;
75061;SDS011;63641;46.526;24.612;2023-01-20T01:30:01;4.00;;;2.90;;
75061;SDS011;63641;46.526;24.612;2023-01-20T01:32:27;9.07;;;6.22;;
75061;SDS011;63641;46.526;24.612;2023-01-20T01:34:54;8.07;;;6.47;;
75061;SDS011;63641;46.526;24.612;2023-01-20T01:37:21;6.65;;;4.50;;
75061;SDS011;63641;46.526;24.612;2023-01-20T01:39:48;6.97;;;5.65;;
75061;SDS011;63641;46.526;24.612;2023-01-20T01:42:16;12.32;;;7.30;;
75061;SDS011;63641;46.526;24.612;2023-01-20T01:47:33;6.97;;;6.25;;
75061;SDS011;63641;46.526;24.612;2023-01-20T01:50:00;6.60;;;4.38;;
75061;SDS011;63641;46.526;24.612;2023-01-20T01:52:28;5.97;;;5.13;;
75061;SDS011;63641;46.526;24.612;2023-01-20T01:54:55;9.85;;;5.72;;
75061;SDS011;63641;46.526;24.612;2023-01-20T01:57:23;8.30;;;6.00;;
75061;SDS011;63641;46.526;24.612;2023-01-20T01:59:50;8.32;;;5.47;;
75061;SDS011;63641;46.526;24.612;2023-01-20T02:02:17;7.07;;;6.28;;
75061;SDS011;63641;46.526;24.612;2023-01-20T02:04:49;5.82;;;5.10;;
75061;SDS011;63641;46.526;24.612;2023-01-20T02:07:16;6.22;;;4.45;;
75061;SDS011;63641;46.526;24.612;2023-01-20T02:09:46;6.90;;;5.35;;
75061;SDS011;63641;46.526;24.612;2023-01-20T02:12:13;6.53;;;5.30;;
75061;SDS011;63641;46.526;24.612;2023-01-20T02:14:48;4.28;;;3.88;;
75061;SDS011;63641;46.526;24.612;2023-01-20T02:20:35;6.90;;;4.93;;
75061;SDS011;63641;46.526;24.612;2023-01-20T02:34:15;8.07;;;4.60;;
75061;SDS011;63641;46.526;24.612;2023-01-20T02:36:56;3.25;;;2.95;;
75061;SDS011;63641;46.526;24.612;2023-01-20T02:42:13;4.20;;;3.40;;
75061;SDS011;63641;46.526;24.612;2023-01-20T02:44:52;5.38;;;3.47;;
75061;SDS011;63641;46.526;24.612;2023-01-20T02:50:04;3.28;;;2.95;;
75061;SDS011;63641;46.526;24.612;2023-01-20T02:52:42;3.53;;;3.22;;
75061;SDS011;63641;46.526;24.612;2023-01-20T02:55:13;3.05;;;2.70;;
75061;SDS011;63641;46.526;24.612;2023-01-20T02:57:49;4.07;;;3.28;;
75061;SDS011;63641;46.526;24.612;2023-01-20T03:00:22;3.53;;;3.20;;
75061;SDS011;63641;46.526;24.612;2023-01-20T03:05:25;3.10;;;2.78;;
75061;SDS011;63641;46.526;24.612;2023-01-20T03:07:59;3.47;;;3.03;;
75061;SDS011;63641;46.526;24.612;2023-01-20T03:10:31;5.30;;;4.18;;
75061;SDS011;63641;46.526;24.612;2023-01-20T03:13:14;4.45;;;3.80;;
75061;SDS011;63641;46.526;24.612;2023-01-20T03:15:56;4.32;;;3.15;;
75061;SDS011;63641;46.526;24.612;2023-01-20T03:18:29;10.27;;;6.78;;
75061;SDS011;63641;46.526;24.612;2023-01-20T03:20:58;9.57;;;7.57;;
75061;SDS011;63641;46.526;24.612;2023-01-20T03:23:26;10.27;;;6.53;;
75061;SDS011;63641;46.526;24.612;2023-01-20T03:25:57;8.15;;;5.25;;
75061;SDS011;63641;46.526;24.612;2023-01-20T03:28:24;4.30;;;3.65;;
75061;SDS011;63641;46.526;24.612;2023-01-20T03:30:52;6.32;;;5.30;;
75061;SDS011;63641;46.526;24.612;2023-01-20T03:33:22;5.22;;;4.35;;
75061;SDS011;63641;46.526;24.612;2023-01-20T03:35:50;4.82;;;4.30;;
75061;SDS011;63641;46.526;24.612;2023-01-20T03:38:18;4.75;;;4.07;;
75061;SDS011;63641;46.526;24.612;2023-01-20T03:40:46;4.05;;;3.28;;
75061;SDS011;63641;46.526;24.612;2023-01-20T03:43:38;5.63;;;4.00;;
75061;SDS011;63641;46.526;24.612;2023-01-20T03:46:41;3.42;;;3.08;;
75061;SDS011;63641;46.526;24.612;2023-01-20T03:49:26;3.17;;;2.88;;
75061;SDS011;63641;46.526;24.612;2023-01-20T03:52:01;3.20;;;2.55;;
75061;SDS011;63641;46.526;24.612;2023-01-20T03:54:33;2.30;;;2.10;;
75061;SDS011;63641;46.526;24.612;2023-01-20T03:57:15;8.43;;;6.50;;
75061;SDS011;63641;46.526;24.612;2023-01-20T03:59:45;9.77;;;7.05;;
75061;SDS011;63641;46.526;24.612;2023-01-20T04:02:15;11.70;;;8.63;;
75061;SDS011;63641;46.526;24.612;2023-01-20T04:04:42;9.13;;;7.15;;
75061;SDS011;63641;46.526;24.612;2023-01-20T04:07:11;8.85;;;7.45;;
75061;SDS011;63641;46.526;24.612;2023-01-20T04:09:44;13.73;;;9.98;;
75061;SDS011;63641;46.526;24.612;2023-01-20T04:12:16;14.48;;;9.68;;
75061;SDS011;63641;46.526;24.612;2023-01-20T04:14:43;14.77;;;10.52;;
75061;SDS011;63641;46.526;24.612;2023-01-20T04:17:09;113.07;;;11.85;;
75061;SDS011;63641;46.526;24.612;2023-01-20T04:19:37;7.82;;;5.63;;
75061;SDS011;63641;46.526;24.612;2023-01-20T04:22:19;29.95;;;8.93;;
75061;SDS011;63641;46.526;24.612;2023-01-20T04:24:58;20.00;;;6.60;;
75061;SDS011;63641;46.526;24.612;2023-01-20T04:27:28;10.18;;;6.20;;
75061;SDS011;63641;46.526;24.612;2023-01-20T04:29:55;9.10;;;5.97;;
75061;SDS011;63641;46.526;24.612;2023-01-20T04:32:22;6.18;;;3.83;;
75061;SDS011;63641;46.526;24.612;2023-01-20T04:34:49;4.38;;;3.60;;
75061;SDS011;63641;46.526;24.612;2023-01-20T04:37:21;5.63;;;4.15;;
75061;SDS011;63641;46.526;24.612;2023-01-20T04:39:48;5.28;;;4.30;;
75061;SDS011;63641;46.526;24.612;2023-01-20T04:42:15;5.53;;;4.35;;
75061;SDS011;63641;46.526;24.612;2023-01-20T04:44:42;6.28;;;4.35;;
75061;SDS011;63641;46.526;24.612;2023-01-20T04:47:08;6.03;;;4.00;;
75061;SDS011;63641;46.526;24.612;2023-01-20T04:49:35;5.75;;;4.18;;
75061;SDS011;63641;46.526;24.612;2023-01-20T04:52:02;18.27;;;4.15;;
75061;SDS011;63641;46.526;24.612;2023-01-20T04:54:29;5.15;;;3.83;;
75061;SDS011;63641;46.526;24.612;2023-01-20T04:56:56;4.18;;;3.78;;
75061;SDS011;63641;46.526;24.612;2023-01-20T04:59:23;6.38;;;4.15;;
75061;SDS011;63641;46.526;24.612;2023-01-20T05:01:49;5.55;;;3.88;;
75061;SDS011;63641;46.526;24.612;2023-01-20T05:04:16;5.38;;;3.65;;
75061;SDS011;63641;46.526;24.612;2023-01-20T05:06:43;5.28;;;4.00;;
75061;SDS011;63641;46.526;24.612;2023-01-20T05:09:11;4.68;;;3.70;;
75061;SDS011;63641;46.526;24.612;2023-01-20T05:11:39;4.57;;;3.92;;
75061;SDS011;63641;46.526;24.612;2023-01-20T05:14:07;7.22;;;5.10;;
75061;SDS011;63641;46.526;24.612;2023-01-20T05:16:34;10.57;;;7.50;;
75061;SDS011;63641;46.526;24.612;2023-01-20T05:19:01;9.27;;;6.18;;
75061;SDS011;63641;46.526;24.612;2023-01-20T05:21:28;13.95;;;10.38;;
75061;SDS011;63641;46.526;24.612;2023-01-20T05:23:55;12.70;;;9.45;;
75061;SDS011;63641;46.526;24.612;2023-01-20T05:26:23;11.18;;;7.93;;
75061;SDS011;63641;46.526;24.612;2023-01-20T05:28:50;8.65;;;7.50;;
75061;SDS011;63641;46.526;24.612;2023-01-20T05:31:17;8.93;;;5.95;;
75061;SDS011;63641;46.526;24.612;2023-01-20T05:33:44;11.52;;;9.07;;
75061;SDS011;63641;46.526;24.612;2023-01-20T05:36:11;11.10;;;9.00;;
75061;SDS011;63641;46.526;24.612;2023-01-20T05:38:37;8.60;;;7.32;;
75061;SDS011;63641;46.526;24.612;2023-01-20T05:41:05;12.15;;;10.07;;
75061;SDS011;63641;46.526;24.612;2023-01-20T05:43:33;13.52;;;9.07;;
75061;SDS011;63641;46.526;24.612;2023-01-20T05:46:00;13.02;;;8.40;;
75061;SDS011;63641;46.526;24.612;2023-01-20T05:48:27;9.50;;;7.93;;
75061;SDS011;63641;46.526;24.612;2023-01-20T05:50:54;14.73;;;9.75;;
75061;SDS011;63641;46.526;24.612;2023-01-20T05:53:21;15.75;;;11.68;;
75061;SDS011;63641;46.526;24.612;2023-01-20T05:55:48;16.40;;;12.95;;
75061;SDS011;63641;46.526;24.612;2023-01-20T05:58:15;22.88;;;14.25;;
75061;SDS011;63641;46.526;24.612;2023-01-20T06:00:42;19.85;;;14.15;;
75061;SDS011;63641;46.526;24.612;2023-01-20T06:03:08;23.05;;;13.98;;
75061;SDS011;63641;46.526;24.612;2023-01-20T06:05:35;20.67;;;13.95;;
75061;SDS011;63641;46.526;24.612;2023-01-20T06:08:02;17.48;;;13.73;;
75061;SDS011;63641;46.526;24.612;2023-01-20T06:10:29;21.40;;;13.57;;
75061;SDS011;63641;46.526;24.612;2023-01-20T06:12:56;17.88;;;13.00;;
75061;SDS011;63641;46.526;24.612;2023-01-20T06:15:24;18.23;;;13.02;;
75061;SDS011;63641;46.526;24.612;2023-01-20T06:17:51;14.35;;;10.00;;
75061;SDS011;63641;46.526;24.612;2023-01-20T06:20:20;13.50;;;10.75;;
75061;SDS011;63641;46.526;24.612;2023-01-20T06:22:47;17.38;;;10.55;;
75061;SDS011;63641;46.526;24.612;2023-01-20T06:25:14;12.95;;;9.60;;
75061;SDS011;63641;46.526;24.612;2023-01-20T06:27:41;12.38;;;8.93;;
75061;SDS011;63641;46.526;24.612;2023-01-20T06:30:08;11.18;;;8.77;;
75061;SDS011;63641;46.526;24.612;2023-01-20T06:32:35;14.60;;;8.98;;
75061;SDS011;63641;46.526;24.612;2023-01-20T06:35:02;12.73;;;7.40;;
75061;SDS011;63641;46.526;24.612;2023-01-20T06:37:29;8.88;;;6.82;;
75061;SDS011;63641;46.526;24.612;2023-01-20T06:39:55;8.85;;;6.53;;
75061;SDS011;63641;46.526;24.612;2023-01-20T06:42:22;11.10;;;7.70;;
75061;SDS011;63641;46.526;24.612;2023-01-20T06:44:49;11.23;;;7.47;;
75061;SDS011;63641;46.526;24.612;2023-01-20T06:47:15;12.05;;;8.10;;
75061;SDS011;63641;46.526;24.612;2023-01-20T06:49:42;9.95;;;7.82;;
75061;SDS011;63641;46.526;24.612;2023-01-20T06:52:09;11.43;;;7.63;;
75061;SDS011;63641;46.526;24.612;2023-01-20T06:54:36;8.40;;;7.15;;
75061;SDS011;63641;46.526;24.612;2023-01-20T06:57:03;10.35;;;8.10;;
75061;SDS011;63641;46.526;24.612;2023-01-20T06:59:29;13.05;;;10.20;;
75061;SDS011;63641;46.526;24.612;2023-01-20T07:01:56;12.32;;;10.05;;
75061;SDS011;63641;46.526;24.612;2023-01-20T07:04:23;17.13;;;13.85;;
75061;SDS011;63641;46.526;24.612;2023-01-20T07:06:49;20.38;;;14.60;;
75061;SDS011;63641;46.526;24.612;2023-01-20T07:09:16;20.42;;;14.85;;
75061;SDS011;63641;46.526;24.612;2023-01-20T07:11:43;17.65;;;12.93;;
75061;SDS011;63641;46.526;24.612;2023-01-20T07:14:10;20.20;;;15.38;;
75061;SDS011;63641;46.526;24.612;2023-01-20T07:16:36;22.88;;;18.88;;
75061;SDS011;63641;46.526;24.612;2023-01-20T07:19:03;26.48;;;19.45;;
75061;SDS011;63641;46.526;24.612;2023-01-20T07:21:30;22.40;;;17.27;;
75061;SDS011;63641;46.526;24.612;2023-01-20T07:24:00;19.55;;;15.70;;
75061;SDS011;63641;46.526;24.612;2023-01-20T07:26:27;23.17;;;16.50;;
75061;SDS011;63641;46.526;24.612;2023-01-20T07:28:56;18.80;;;13.40;;
75061;SDS011;63641;46.526;24.612;2023-01-20T07:31:24;22.40;;;16.20;;
75061;SDS011;63641;46.526;24.612;2023-01-20T07:33:54;20.15;;;13.43;;
75061;SDS011;63641;46.526;24.612;2023-01-20T07:36:21;18.35;;;13.35;;
75061;SDS011;63641;46.526;24.612;2023-01-20T07:38:49;40.92;;;29.75;;
75061;SDS011;63641;46.526;24.612;2023-01-20T07:41:16;42.10;;;31.80;;
75061;SDS011;63641;46.526;24.612;2023-01-20T07:43:45;43.55;;;30.90;;
75061;SDS011;63641;46.526;24.612;2023-01-20T07:46:13;33.17;;;27.25;;
75061;SDS011;63641;46.526;24.612;2023-01-20T07:48:40;38.30;;;29.35;;
75061;SDS011;63641;46.526;24.612;2023-01-20T07:51:08;40.50;;;32.40;;
75061;SDS011;63641;46.526;24.612;2023-01-20T07:53:37;40.55;;;31.20;;
75061;SDS011;63641;46.526;24.612;2023-01-20T07:56:07;40.83;;;29.80;;
75061;SDS011;63641;46.526;24.612;2023-01-20T07:58:38;34.67;;;24.67;;
75061;SDS011;63641;46.526;24.612;2023-01-20T08:01:08;33.58;;;25.60;;
75061;SDS011;63641;46.526;24.612;2023-01-20T08:03:40;30.67;;;22.85;;
75061;SDS011;63641;46.526;24.612;2023-01-20T08:06:08;24.17;;;20.35;;
75061;SDS011;63641;46.526;24.612;2023-01-20T08:08:36;24.70;;;20.50;;
75061;SDS011;63641;46.526;24.612;2023-01-20T08:11:04;21.95;;;16.35;;
75061;SDS011;63641;46.526;24.612;2023-01-20T08:13:32;24.55;;;17.00;;
75061;SDS011;63641;46.526;24.612;2023-01-20T08:15:59;25.73;;;20.50;;
75061;SDS011;63641;46.526;24.612;2023-01-20T08:18:30;26.30;;;20.73;;
75061;SDS011;63641;46.526;24.612;2023-01-20T08:20:58;23.73;;;19.55;;
75061;SDS011;63641;46.526;24.612;2023-01-20T08:23:25;21.15;;;16.95;;
75061;SDS011;63641;46.526;24.612;2023-01-20T08:25:58;18.92;;;14.52;;
75061;SDS011;63641;46.526;24.612;2023-01-20T08:28:27;21.92;;;15.45;;
75061;SDS011;63641;46.526;24.612;2023-01-20T08:31:10;19.35;;;14.57;;
75061;SDS011;63641;46.526;24.612;2023-01-20T08:33:39;18.50;;;13.65;;
75061;SDS011;63641;46.526;24.612;2023-01-20T08:36:11;17.25;;;12.70;;
75061;SDS011;63641;46.526;24.612;2023-01-20T08:38:40;14.98;;;12.07;;
75061;SDS011;63641;46.526;24.612;2023-01-20T08:41:08;15.57;;;11.98;;
75061;SDS011;63641;46.526;24.612;2023-01-20T08:43:37;16.05;;;12.20;;
75061;SDS011;63641;46.526;24.612;2023-01-20T08:46:06;13.63;;;10.95;;
75061;SDS011;63641;46.526;24.612;2023-01-20T08:48:35;19.02;;;14.73;;
75061;SDS011;63641;46.526;24.612;2023-01-20T08:51:07;15.52;;;11.93;;
75061;SDS011;63641;46.526;24.612;2023-01-20T08:53:39;16.77;;;14.45;;
75061;SDS011;63641;46.526;24.612;2023-01-20T08:56:07;17.42;;;13.48;;
75061;SDS011;63641;46.526;24.612;2023-01-20T08:58:34;16.30;;;14.15;;
75061;SDS011;63641;46.526;24.612;2023-01-20T09:01:01;16.48;;;12.77;;
75061;SDS011;63641;46.526;24.612;2023-01-20T09:03:37;14.07;;;12.25;;
75061;SDS011;63641;46.526;24.612;2023-01-20T09:06:05;20.05;;;13.18;;
75061;SDS011;63641;46.526;24.612;2023-01-20T09:08:33;15.07;;;12.80;;
75061;SDS011;63641;46.526;24.612;2023-01-20T09:11:01;14.40;;;11.70;;
75061;SDS011;63641;46.526;24.612;2023-01-20T09:13:47;13.40;;;11.73;;
75061;SDS011;63641;46.526;24.612;2023-01-20T09:16:15;15.15;;;11.45;;
75061;SDS011;63641;46.526;24.612;2023-01-20T09:18:43;14.48;;;10.65;;
75061;SDS011;63641;46.526;24.612;2023-01-20T09:21:10;15.48;;;10.82;;
75061;SDS011;63641;46.526;24.612;2023-01-20T09:23:38;17.65;;;12.60;;
75061;SDS011;63641;46.526;24.612;2023-01-20T09:26:06;14.63;;;12.88;;
75061;SDS011;63641;46.526;24.612;2023-01-20T09:28:33;15.48;;;13.48;;
75061;SDS011;63641;46.526;24.612;2023-01-20T09:31:01;22.40;;;17.95;;
75061;SDS011;63641;46.526;24.612;2023-01-20T09:33:30;20.65;;;16.90;;
75061;SDS011;63641;46.526;24.612;2023-01-20T09:35:57;24.25;;;19.60;;
75061;SDS011;63641;46.526;24.612;2023-01-20T09:38:25;24.88;;;21.02;;
75061;SDS011;63641;46.526;24.612;2023-01-20T09:41:18;24.50;;;20.20;;
75061;SDS011;63641;46.526;24.612;2023-01-20T09:53:08;26.63;;;22.48;;
75061;SDS011;63641;46.526;24.612;2023-01-20T09:55:51;22.80;;;18.88;;
75061;SDS011;63641;46.526;24.612;2023-01-20T10:01:03;24.00;;;17.98;;
75061;SDS011;63641;46.526;24.612;2023-01-20T10:09:21;15.98;;;13.07;;
75061;SDS011;63641;46.526;24.612;2023-01-20T10:12:05;14.40;;;11.48;;
75061;SDS011;63641;46.526;24.612;2023-01-20T10:14:37;13.82;;;11.55;;
75061;SDS011;63641;46.526;24.612;2023-01-20T10:23:00;15.60;;;13.00;;
75061;SDS011;63641;46.526;24.612;2023-01-20T10:28:14;16.98;;;14.02;;
75061;SDS011;63641;46.526;24.612;2023-01-20T10:30:45;16.55;;;13.90;;
75061;SDS011;63641;46.526;24.612;2023-01-20T10:33:14;16.42;;;14.65;;
75061;SDS011;63641;46.526;24.612;2023-01-20T10:35:52;18.27;;;15.52;;
75061;SDS011;63641;46.526;24.612;2023-01-20T10:38:27;18.88;;;15.65;;
75061;SDS011;63641;46.526;24.612;2023-01-20T10:43:45;27.70;;;21.33;;
75061;SDS011;63641;46.526;24.612;2023-01-20T10:46:21;31.77;;;23.85;;
75061;SDS011;63641;46.526;24.612;2023-01-20T10:54:53;28.83;;;20.48;;
75061;SDS011;63641;46.526;24.612;2023-01-20T10:57:26;23.15;;;17.85;;
75061;SDS011;63641;46.526;24.612;2023-01-20T10:59:54;18.73;;;15.02;;
75061;SDS011;63641;46.526;24.612;2023-01-20T11:02:29;20.65;;;14.95;;
75061;SDS011;63641;46.526;24.612;2023-01-20T11:05:01;22.83;;;17.67;;
75061;SDS011;63641;46.526;24.612;2023-01-20T11:07:40;30.85;;;17.98;;
75061;SDS011;63641;46.526;24.612;2023-01-20T11:10:14;23.25;;;17.73;;
75061;SDS011;63641;46.526;24.612;2023-01-20T11:12:43;21.53;;;16.67;;
75061;SDS011;63641;46.526;24.612;2023-01-20T11:15:32;21.50;;;18.15;;
75061;SDS011;63641;46.526;24.612;2023-01-20T11:21:01;23.10;;;18.48;;
75061;SDS011;63641;46.526;24.612;2023-01-20T11:26:24;22.85;;;19.38;;
75061;SDS011;63641;46.526;24.612;2023-01-20T11:28:58;25.13;;;19.90;;
75061;SDS011;63641;46.526;24.612;2023-01-20T11:37:18;26.20;;;21.33;;
75061;SDS011;63641;46.526;24.612;2023-01-20T11:42:15;24.25;;;17.52;;
75061;SDS011;63641;46.526;24.612;2023-01-20T11:44:46;27.35;;;19.20;;
75061;SDS011;63641;46.526;24.612;2023-01-20T11:52:38;22.65;;;19.42;;
75061;SDS011;63641;46.526;24.612;2023-01-20T12:05:53;26.45;;;23.10;;
75061;SDS011;63641;46.526;24.612;2023-01-20T12:08:47;32.53;;;24.55;;
75061;SDS011;63641;46.526;24.612;2023-01-20T12:11:23;32.53;;;24.73;;
75061;SDS011;63641;46.526;24.612;2023-01-20T12:19:18;25.02;;;21.98;;
75061;SDS011;63641;46.526;24.612;2023-01-20T12:21:49;25.83;;;21.10;;
75061;SDS011;63641;46.526;24.612;2023-01-20T12:24:22;25.10;;;20.52;;
75061;SDS011;63641;46.526;24.612;2023-01-20T12:27:09;21.83;;;18.10;;
75061;SDS011;63641;46.526;24.612;2023-01-20T12:29:46;24.40;;;18.02;;
75061;SDS011;63641;46.526;24.612;2023-01-20T12:32:17;21.60;;;17.15;;
75061;SDS011;63641;46.526;24.612;2023-01-20T12:34:43;18.20;;;14.07;;
75061;SDS011;63641;46.526;24.612;2023-01-20T12:37:30;18.63;;;14.82;;
75061;SDS011;63641;46.526;24.612;2023-01-20T12:45:32;16.33;;;11.88;;
75061;SDS011;63641;46.526;24.612;2023-01-20T12:48:18;16.23;;;12.45;;
75061;SDS011;63641;46.526;24.612;2023-01-20T12:50:57;21.92;;;13.95;;
75061;SDS011;63641;46.526;24.612;2023-01-20T12:56:44;36.25;;;26.25;;
75061;SDS011;63641;46.526;24.612;2023-01-20T12:59:37;59.63;;;40.58;;
75061;SDS011;63641;46.526;24.612;2023-01-20T13:02:18;58.40;;;42.95;;
75061;SDS011;63641;46.526;24.612;2023-01-20T13:10:15;50.13;;;38.63;;
75061;SDS011;63641;46.526;24.612;2023-01-20T13:15:26;57.90;;;47.90;;
75061;SDS011;63641;46.526;24.612;2023-01-20T13:20:48;65.90;;;50.00;;
75061;SDS011;63641;46.526;24.612;2023-01-20T13:23:19;74.20;;;54.53;;
75061;SDS011;63641;46.526;24.612;2023-01-20T13:25:50;46.05;;;36.42;;
75061;SDS011;63641;46.526;24.612;2023-01-20T13:28:18;37.45;;;28.98;;
75061;SDS011;63641;46.526;24.612;2023-01-20T13:30:51;39.67;;;31.63;;
75061;SDS011;63641;46.526;24.612;2023-01-20T13:35:59;46.92;;;33.53;;
75061;SDS011;63641;46.526;24.612;2023-01-20T13:38:39;42.10;;;31.35;;
75061;SDS011;63641;46.526;24.612;2023-01-20T13:41:06;44.03;;;32.75;;
75061;SDS011;63641;46.526;24.612;2023-01-20T13:43:35;45.47;;;32.90;;
75061;SDS011;63641;46.526;24.612;2023-01-20T13:48:33;42.80;;;32.88;;
75061;SDS011;63641;46.526;24.612;2023-01-20T13:53:41;40.58;;;33.83;;
75061;SDS011;63641;46.526;24.612;2023-01-20T13:56:30;45.83;;;35.78;;
75061;SDS011;63641;46.526;24.612;2023-01-20T13:59:00;47.58;;;40.08;;
75061;SDS011;63641;46.526;24.612;2023-01-20T14:01:27;49.70;;;39.38;;
75061;SDS011;63641;46.526;24.612;2023-01-20T14:04:00;56.42;;;41.53;;
75061;SDS011;63641;46.526;24.612;2023-01-20T14:06:28;54.13;;;42.13;;
75061;SDS011;63641;46.526;24.612;2023-01-20T14:08:58;50.50;;;41.50;;
75061;SDS011;63641;46.526;24.612;2023-01-20T14:11:27;49.47;;;37.58;;
75061;SDS011;63641;46.526;24.612;2023-01-20T14:13:56;44.72;;;35.55;;
75061;SDS011;63641;46.526;24.612;2023-01-20T14:21:55;39.78;;;31.63;;
75061;SDS011;63641;46.526;24.612;2023-01-20T14:24:33;39.17;;;30.10;;
75061;SDS011;63641;46.526;24.612;2023-01-20T14:27:20;35.67;;;28.48;;
75061;SDS011;63641;46.526;24.612;2023-01-20T14:29:50;30.77;;;24.35;;
75061;SDS011;63641;46.526;24.612;2023-01-20T14:32:19;30.33;;;23.05;;
75061;SDS011;63641;46.526;24.612;2023-01-20T14:34:53;28.50;;;23.38;;
75061;SDS011;63641;46.526;24.612;2023-01-20T14:37:22;28.80;;;23.55;;
75061;SDS011;63641;46.526;24.612;2023-01-20T14:39:53;27.60;;;22.50;;
75061;SDS011;63641;46.526;24.612;2023-01-20T14:42:24;25.92;;;22.23;;
75061;SDS011;63641;46.526;24.612;2023-01-20T14:44:53;26.35;;;23.17;;
75061;SDS011;63641;46.526;24.612;2023-01-20T14:47:22;26.52;;;20.98;;
75061;SDS011;63641;46.526;24.612;2023-01-20T14:49:52;24.20;;;18.83;;
75061;SDS011;63641;46.526;24.612;2023-01-20T14:52:21;21.33;;;17.90;;
75061;SDS011;63641;46.526;24.612;2023-01-20T14:54:52;21.90;;;18.17;;
75061;SDS011;63641;46.526;24.612;2023-01-20T14:57:22;20.80;;;13.80;;
75061;SDS011;63641;46.526;24.612;2023-01-20T15:02:36;15.70;;;13.43;;
75061;SDS011;63641;46.526;24.612;2023-01-20T15:05:40;19.98;;;14.30;;
75061;SDS011;63641;46.526;24.612;2023-01-20T15:08:10;13.68;;;11.55;;
75061;SDS011;63641;46.526;24.612;2023-01-20T15:10:44;13.10;;;10.57;;
75061;SDS011;63641;46.526;24.612;2023-01-20T15:13:24;14.02;;;11.32;;
75061;SDS011;63641;46.526;24.612;2023-01-20T15:18:39;15.50;;;11.35;;
75061;SDS011;63641;46.526;24.612;2023-01-20T15:26:26;33.78;;;23.70;;
75061;SDS011;63641;46.526;24.612;2023-01-20T15:28:55;28.08;;;23.08;;
75061;SDS011;63641;46.526;24.612;2023-01-20T15:31:23;24.77;;;20.23;;
75061;SDS011;63641;46.526;24.612;2023-01-20T15:33:50;27.73;;;23.65;;
75061;SDS011;63641;46.526;24.612;2023-01-20T15:36:25;28.90;;;22.52;;
75061;SDS011;63641;46.526;24.612;2023-01-20T15:38:54;20.85;;;15.68;;
75061;SDS011;63641;46.526;24.612;2023-01-20T15:41:21;23.10;;;15.90;;
75061;SDS011;63641;46.526;24.612;2023-01-20T15:43:49;19.92;;;17.55;;
75061;SDS011;63641;46.526;24.612;2023-01-20T15:46:17;19.38;;;15.68;;
75061;SDS011;63641;46.526;24.612;2023-01-20T15:48:45;29.30;;;22.38;;
75061;SDS011;63641;46.526;24.612;2023-01-20T15:51:13;15.40;;;12.35;;
75061;SDS011;63641;46.526;24.612;2023-01-20T15:53:41;18.05;;;13.52;;
75061;SDS011;63641;46.526;24.612;2023-01-20T15:56:16;20.85;;;16.13;;
75061;SDS011;63641;46.526;24.612;2023-01-20T15:58:46;14.77;;;11.85;;
75061;SDS011;63641;46.526;24.612;2023-01-20T16:01:14;14.77;;;12.05;;
75061;SDS011;63641;46.526;24.612;2023-01-20T16:03:43;20.25;;;14.30;;
75061;SDS011;63641;46.526;24.612;2023-01-20T16:06:11;27.10;;;20.75;;
75061;SDS011;63641;46.526;24.612;2023-01-20T16:08:40;18.13;;;13.75;;
75061;SDS011;63641;46.526;24.612;2023-01-20T16:11:07;27.48;;;18.95;;
75061;SDS011;63641;46.526;24.612;2023-01-20T16:13:38;16.17;;;13.35;;
75061;SDS011;63641;46.526;24.612;2023-01-20T16:16:12;20.38;;;16.42;;
75061;SDS011;63641;46.526;24.612;2023-01-20T16:18:42;15.30;;;12.95;;
75061;SDS011;63641;46.526;24.612;2023-01-20T16:21:10;26.92;;;19.27;;
75061;SDS011;63641;46.526;24.612;2023-01-20T16:23:38;36.28;;;25.45;;
75061;SDS011;63641;46.526;24.612;2023-01-20T16:26:12;42.67;;;31.25;;
75061;SDS011;63641;46.526;24.612;2023-01-20T16:28:53;45.83;;;36.15;;
75061;SDS011;63641;46.526;24.612;2023-01-20T16:31:21;66.00;;;44.58;;
75061;SDS011;63641;46.526;24.612;2023-01-20T16:33:50;57.83;;;40.92;;
75061;SDS011;63641;46.526;24.612;2023-01-20T16:36:18;45.53;;;34.83;;
75061;SDS011;63641;46.526;24.612;2023-01-20T16:38:46;54.03;;;34.80;;
75061;SDS011;63641;46.526;24.612;2023-01-20T16:41:24;49.33;;;36.40;;
75061;SDS011;63641;46.526;24.612;2023-01-20T16:43:56;57.03;;;37.72;;
75061;SDS011;63641;46.526;24.612;2023-01-20T16:46:24;59.22;;;41.78;;
75061;SDS011;63641;46.526;24.612;2023-01-20T16:48:53;45.15;;;36.67;;
75061;SDS011;63641;46.526;24.612;2023-01-20T16:51:25;53.60;;;39.88;;
75061;SDS011;63641;46.526;24.612;2023-01-20T16:53:52;42.05;;;32.83;;
75061;SDS011;63641;46.526;24.612;2023-01-20T16:56:24;40.58;;;32.00;;
75061;SDS011;63641;46.526;24.612;2023-01-20T16:58:53;48.30;;;35.03;;